createdAt,value
2018-10-12T00:01:43.633Z,14.10
2018-10-12T00:04:11.979Z,20.77
2018-10-12T00:06:40.445Z,16.17
2018-10-12T00:09:10.172Z,14.60
2018-10-12T00:11:38.868Z,18.03
2018-10-12T00:14:07.269Z,17.07
2018-10-12T00:16:35.597Z,19.57
2018-10-12T00:19:03.945Z,22.53
2018-10-12T00:21:32.372Z,18.17
2018-10-12T00:24:00.701Z,13.43
2018-10-12T00:26:29.086Z,15.00
2018-10-12T00:28:57.461Z,16.13
2018-10-12T00:31:25.842Z,17.13
2018-10-12T00:33:54.192Z,15.30
2018-10-12T00:36:22.561Z,18.77
2018-10-12T00:38:51.498Z,16.53
2018-10-12T00:41:19.833Z,16.53
2018-10-12T00:43:48.184Z,18.23
2018-10-12T00:46:16.613Z,16.40
2018-10-12T00:48:44.954Z,20.97
2018-10-12T00:51:13.285Z,16.70
2018-10-12T00:53:41.615Z,18.87
2018-10-12T00:56:10.141Z,20.13
2018-10-12T00:58:38.521Z,18.03
2018-10-12T01:01:06.906Z,19.43
2018-10-12T01:03:35.243Z,22.07
2018-10-12T01:06:03.574Z,18.63
2018-10-12T01:08:31.901Z,21.63
2018-10-12T01:11:00.286Z,15.70
2018-10-12T01:13:28.641Z,15.20
2018-10-12T01:15:56.972Z,17.43
2018-10-12T01:18:25.331Z,18.47
2018-10-12T01:20:53.717Z,18.67
2018-10-12T01:23:22.058Z,14.73
2018-10-12T01:25:50.395Z,21.60
2018-10-12T01:28:18.739Z,19.87
2018-10-12T01:30:47.118Z,18.30
2018-10-12T01:33:15.464Z,19.37
2018-10-12T01:35:43.805Z,19.23
2018-10-12T01:38:12.153Z,21.50
2018-10-12T01:40:40.502Z,23.43
2018-10-12T01:43:08.836Z,18.13
2018-10-12T01:45:37.185Z,15.57
2018-10-12T01:48:05.594Z,17.17
2018-10-12T01:50:33.965Z,23.27
2018-10-12T01:53:02.298Z,18.00
2018-10-12T01:55:30.664Z,20.70
2018-10-12T01:57:59.054Z,21.17
2018-10-12T02:00:27.527Z,23.77
2018-10-12T02:02:55.869Z,17.50
2018-10-12T02:05:24.223Z,17.43
2018-10-12T02:07:52.585Z,16.83
2018-10-12T02:10:20.935Z,15.53
2018-10-12T02:12:49.256Z,23.83
2018-10-12T02:15:17.615Z,18.17
2018-10-12T02:17:45.937Z,22.60
2018-10-12T02:20:14.351Z,20.37
2018-10-12T02:22:43.060Z,26.67
2018-10-12T02:25:12.056Z,25.93
2018-10-12T02:27:40.404Z,17.73
2018-10-12T02:30:09.326Z,18.33
2018-10-12T02:32:37.910Z,22.97
2018-10-12T02:35:06.497Z,25.63
2018-10-12T02:37:34.922Z,18.23
2018-10-12T02:40:03.332Z,18.93
2018-10-12T02:42:31.668Z,17.87
2018-10-12T02:44:59.989Z,16.77
2018-10-12T02:47:28.321Z,20.97
2018-10-12T02:49:56.657Z,17.77
2018-10-12T02:52:24.986Z,17.97
2018-10-12T02:54:53.353Z,16.10
2018-10-12T02:57:21.675Z,22.83
2018-10-12T02:59:50.041Z,22.77
2018-10-12T03:02:18.361Z,17.83
2018-10-12T03:04:46.716Z,17.77
2018-10-12T03:07:15.056Z,16.87
2018-10-12T03:09:43.405Z,19.97
2018-10-12T03:12:11.847Z,27.87
2018-10-12T03:14:40.180Z,30.37
2018-10-12T03:17:08.547Z,17.33
2018-10-12T03:19:37.112Z,20.63
2018-10-12T03:22:05.473Z,21.03
2018-10-12T03:24:33.883Z,19.47
2018-10-12T03:27:02.267Z,30.47
2018-10-12T03:29:30.611Z,23.63
2018-10-12T03:31:58.948Z,23.93
2018-10-12T03:34:27.308Z,24.23
2018-10-12T03:36:55.670Z,18.80
2018-10-12T03:39:24.017Z,18.57
2018-10-12T03:41:52.352Z,22.47
2018-10-12T03:44:20.710Z,22.07
2018-10-12T03:46:49.061Z,18.30
2018-10-12T03:49:17.399Z,20.70
2018-10-12T03:51:45.770Z,19.23
2018-10-12T03:54:14.165Z,19.67
2018-10-12T03:56:42.499Z,18.80
2018-10-12T03:59:10.981Z,23.63
2018-10-12T04:01:39.328Z,19.57
2018-10-12T04:04:07.673Z,22.63
2018-10-12T04:06:36.021Z,19.60
2018-10-12T04:09:05.490Z,20.53
2018-10-12T04:11:33.829Z,19.47
2018-10-12T04:14:02.146Z,29.30
2018-10-12T04:16:30.651Z,22.70
2018-10-12T04:18:58.980Z,23.53
2018-10-12T04:21:27.352Z,22.13
2018-10-12T04:23:55.671Z,21.20
2018-10-12T04:26:24.009Z,21.23
2018-10-12T04:28:52.349Z,20.30
2018-10-12T04:31:20.684Z,23.33
2018-10-12T04:33:49.051Z,26.00
2018-10-12T04:36:17.471Z,20.57
2018-10-12T04:38:57.101Z,20.77
2018-10-12T04:41:25.465Z,24.23
2018-10-12T04:43:55.225Z,23.07
2018-10-12T04:46:28.733Z,17.67
2018-10-12T04:48:57.144Z,20.77
2018-10-12T04:51:47.189Z,20.13
2018-10-12T04:54:15.778Z,19.87
2018-10-12T04:56:44.556Z,24.23
2018-10-12T04:59:12.909Z,23.93
2018-10-12T05:01:41.257Z,23.23
2018-10-12T05:04:09.637Z,28.40
2018-10-12T05:06:38.003Z,27.23
2018-10-12T05:09:08.086Z,24.70
2018-10-12T05:11:36.482Z,23.37
2018-10-12T05:14:04.822Z,21.23
2018-10-12T05:16:33.168Z,22.27
2018-10-12T05:19:01.520Z,23.07
2018-10-12T05:21:29.901Z,38.03
2018-10-12T05:23:58.251Z,25.53
2018-10-12T05:26:26.616Z,24.80
2018-10-12T05:28:55.005Z,22.87
2018-10-12T05:31:23.347Z,23.60
2018-10-12T05:33:51.689Z,22.00
2018-10-12T05:36:20.033Z,21.23
2018-10-12T05:38:48.380Z,22.03
2018-10-12T05:41:17.602Z,23.53
2018-10-12T05:43:46.031Z,24.77
2018-10-12T05:46:14.305Z,29.13
2018-10-12T05:48:54.117Z,20.80
2018-10-12T05:51:22.457Z,19.37
2018-10-12T05:53:52.341Z,21.53
2018-10-12T05:56:22.870Z,34.87
2018-10-12T05:58:51.553Z,25.23
2018-10-12T06:01:20.084Z,25.53
2018-10-12T06:03:48.404Z,28.80
2018-10-12T06:06:16.758Z,25.93
2018-10-12T06:08:45.144Z,26.00
2018-10-12T06:11:13.532Z,21.93
2018-10-12T06:13:41.884Z,27.10
2018-10-12T06:16:10.484Z,22.03
2018-10-12T06:18:38.861Z,20.90
2018-10-12T06:21:07.722Z,22.90
2018-10-12T06:23:36.172Z,24.13
2018-10-12T06:26:04.532Z,28.53
2018-10-12T06:28:32.876Z,22.77
2018-10-12T06:31:01.239Z,26.07
2018-10-12T06:33:29.578Z,23.40
2018-10-12T06:35:56.931Z,30.83
2018-10-12T06:38:25.816Z,21.57
2018-10-12T06:40:54.192Z,24.57
2018-10-12T06:43:22.552Z,27.77
2018-10-12T06:45:50.902Z,27.03
2018-10-12T06:48:19.251Z,24.47
2018-10-12T06:50:47.588Z,30.00
2018-10-12T06:53:15.896Z,20.73
2018-10-12T06:55:44.245Z,25.40
2018-10-12T06:58:12.592Z,22.37
2018-10-12T07:00:40.941Z,26.77
2018-10-12T07:03:09.310Z,25.00
2018-10-12T07:05:37.739Z,22.83
2018-10-12T07:08:06.054Z,24.73
2018-10-12T07:10:34.418Z,24.17
2018-10-12T07:13:02.765Z,23.10
2018-10-12T07:15:31.105Z,24.43
2018-10-12T07:17:59.454Z,25.17
2018-10-12T07:20:27.784Z,23.93
2018-10-12T07:22:56.281Z,27.13
2018-10-12T07:25:24.615Z,24.13
2018-10-12T07:27:52.969Z,27.70
2018-10-12T07:30:21.303Z,23.53
2018-10-12T07:32:49.650Z,23.60
2018-10-12T07:35:18.136Z,20.23
2018-10-12T07:37:46.519Z,25.30
2018-10-12T07:40:15.373Z,29.63
2018-10-12T07:42:43.850Z,28.77
2018-10-12T07:45:12.200Z,23.90
2018-10-12T07:47:40.592Z,21.67
2018-10-12T07:50:08.964Z,28.23
2018-10-12T07:52:37.357Z,23.20
2018-10-12T07:55:05.688Z,21.43
2018-10-12T07:57:34.030Z,24.73
2018-10-12T08:00:02.400Z,23.23
2018-10-12T08:02:30.754Z,19.63
2018-10-12T08:04:59.138Z,21.27
2018-10-12T08:07:27.477Z,18.97
2018-10-12T08:09:56.249Z,23.37
2018-10-12T08:12:24.582Z,18.37
2018-10-12T08:14:52.933Z,17.33
2018-10-12T08:17:21.288Z,17.73
2018-10-12T08:19:49.661Z,15.77
2018-10-12T08:22:18.007Z,16.37
2018-10-12T08:24:46.365Z,19.37
2018-10-12T08:27:14.824Z,19.63
2018-10-12T08:29:43.210Z,20.40
2018-10-12T08:32:11.878Z,23.67
2018-10-12T08:34:40.228Z,25.87
2018-10-12T08:37:08.607Z,19.57
2018-10-12T08:39:36.935Z,27.00
2018-10-12T08:42:05.349Z,21.27
2018-10-12T08:44:33.693Z,17.93
2018-10-12T08:47:02.126Z,19.70
2018-10-12T08:49:30.474Z,19.23
2018-10-12T08:51:59.647Z,21.03
2018-10-12T08:54:28.003Z,42.00
2018-10-12T08:56:56.357Z,18.77
2018-10-12T08:59:24.713Z,27.60
2018-10-12T09:01:53.115Z,17.67
2018-10-12T09:04:21.448Z,19.30
2018-10-12T09:06:49.841Z,16.47
2018-10-12T09:09:18.198Z,17.37
2018-10-12T09:11:46.554Z,15.40
2018-10-12T09:14:14.976Z,14.77
2018-10-12T09:16:43.328Z,16.30
2018-10-12T09:19:11.668Z,17.40
2018-10-12T09:21:40.167Z,19.63
2018-10-12T09:24:08.482Z,21.53
2018-10-12T09:26:36.837Z,21.50
2018-10-12T09:29:05.244Z,18.10
2018-10-12T09:31:33.710Z,15.90
2018-10-12T09:34:02.075Z,18.33
2018-10-12T09:36:30.534Z,16.50
2018-10-12T09:38:58.908Z,18.97
2018-10-12T09:41:27.240Z,20.77
2018-10-12T09:43:55.662Z,20.23
2018-10-12T09:46:23.998Z,17.47
2018-10-12T09:48:52.327Z,19.87
2018-10-12T09:51:20.736Z,17.07
2018-10-12T09:53:49.101Z,21.20
2018-10-12T09:56:17.783Z,19.57
2018-10-12T09:58:46.713Z,17.67
2018-10-12T10:01:21.595Z,19.60
2018-10-12T10:03:55.270Z,14.03
2018-10-12T10:06:23.888Z,15.93
2018-10-12T10:08:52.268Z,16.57
2018-10-12T10:11:20.587Z,17.93
2018-10-12T10:13:49.061Z,17.60
2018-10-12T10:16:17.338Z,18.00
2018-10-12T10:18:45.688Z,17.13
2018-10-12T10:21:14.014Z,15.57
2018-10-12T10:23:42.356Z,19.40
2018-10-12T10:26:10.704Z,17.37
2018-10-12T10:28:39.048Z,22.10
2018-10-12T10:31:07.401Z,19.50
2018-10-12T10:33:35.749Z,18.23
2018-10-12T10:36:04.097Z,16.53
2018-10-12T10:38:32.571Z,17.03
2018-10-12T10:41:00.950Z,14.93
2018-10-12T10:43:29.323Z,18.50
2018-10-12T10:45:57.646Z,17.60
2018-10-12T10:48:26.060Z,16.93
2018-10-12T10:50:54.409Z,14.77
2018-10-12T10:53:22.798Z,19.67
2018-10-12T10:55:51.138Z,15.80
2018-10-12T10:58:19.459Z,15.23
2018-10-12T11:00:47.850Z,15.97
2018-10-12T11:03:16.204Z,15.93
2018-10-12T11:05:44.579Z,17.53
2018-10-12T11:08:12.964Z,14.53
2018-10-12T11:10:41.302Z,18.10
2018-10-12T11:13:09.639Z,14.63
2018-10-12T11:15:37.985Z,15.17
2018-10-12T11:18:06.538Z,18.10
2018-10-12T11:20:35.375Z,19.60
2018-10-12T11:23:03.771Z,17.47
2018-10-12T11:25:32.137Z,15.07
2018-10-12T11:28:00.510Z,17.87
2018-10-12T11:30:28.872Z,14.47
2018-10-12T11:32:57.369Z,19.33
2018-10-12T11:35:25.659Z,15.10
2018-10-12T11:37:53.995Z,16.40
2018-10-12T11:40:22.391Z,17.60
2018-10-12T11:43:01.981Z,15.63
2018-10-12T11:45:30.428Z,14.33
2018-10-12T11:47:58.756Z,20.60
2018-10-12T11:50:27.135Z,12.77
2018-10-12T11:52:55.595Z,14.57
2018-10-12T11:55:24.001Z,16.30
2018-10-12T11:57:52.307Z,16.73
2018-10-12T12:00:20.641Z,11.27
2018-10-12T12:02:49.194Z,16.63
2018-10-12T12:05:17.512Z,11.60
2018-10-12T12:07:45.865Z,17.77
2018-10-12T12:10:14.203Z,17.40
2018-10-12T12:12:42.550Z,19.60
2018-10-12T12:15:10.909Z,12.30
2018-10-12T12:17:39.300Z,17.90
2018-10-12T12:20:07.648Z,18.57
2018-10-12T12:22:36.099Z,21.27
2018-10-12T12:25:04.511Z,12.23
2018-10-12T12:27:32.865Z,14.47
2018-10-12T12:30:01.204Z,18.80
2018-10-12T12:32:29.554Z,13.63
2018-10-12T12:34:58.009Z,16.87
2018-10-12T12:37:26.277Z,14.50
2018-10-12T12:39:54.597Z,17.43
2018-10-12T12:42:22.953Z,15.17
2018-10-12T12:44:51.308Z,13.00
2018-10-12T12:47:19.668Z,13.67
2018-10-12T12:49:48.037Z,15.97
2018-10-12T12:52:16.363Z,12.27
2018-10-12T12:54:44.712Z,12.20
2018-10-12T12:57:13.088Z,13.03
2018-10-12T12:59:41.441Z,15.17
2018-10-12T13:02:09.861Z,14.30
2018-10-12T13:04:38.194Z,14.00
2018-10-12T13:07:06.548Z,13.93
2018-10-12T13:09:34.896Z,20.33
2018-10-12T13:12:03.249Z,18.93
2018-10-12T13:14:31.586Z,21.03
2018-10-12T13:16:59.926Z,10.40
2018-10-12T13:19:28.277Z,17.53
2018-10-12T13:21:56.931Z,17.53
2018-10-12T13:24:25.276Z,10.87
2018-10-12T13:26:53.607Z,16.60
2018-10-12T13:29:21.954Z,12.90
2018-10-12T13:31:50.369Z,13.00
2018-10-12T13:34:18.810Z,10.60
2018-10-12T13:36:47.142Z,13.60
2018-10-12T13:39:15.513Z,11.33
2018-10-12T13:41:43.841Z,16.57
2018-10-12T13:44:12.169Z,14.43
2018-10-12T13:46:40.590Z,13.03
2018-10-12T13:49:09.099Z,11.60
2018-10-12T13:51:37.461Z,11.87
2018-10-12T13:54:06.033Z,12.53
2018-10-12T13:56:34.403Z,10.70
2018-10-12T13:59:02.734Z,13.13
2018-10-12T14:01:31.523Z,8.37
2018-10-12T14:03:59.852Z,11.53
2018-10-12T14:06:28.225Z,9.87
2018-10-12T14:08:56.538Z,13.80
2018-10-12T14:11:24.887Z,11.47
2018-10-12T14:13:53.211Z,12.93
2018-10-12T14:16:21.546Z,8.73
2018-10-12T14:18:49.935Z,16.23
2018-10-12T14:21:18.249Z,9.10
2018-10-12T14:23:46.580Z,10.80
2018-10-12T14:26:14.924Z,11.67
2018-10-12T14:28:43.265Z,10.60
2018-10-12T14:31:11.613Z,11.70
2018-10-12T14:33:39.979Z,12.33
2018-10-12T14:36:08.337Z,9.97
2018-10-12T14:38:37.263Z,12.90
2018-10-12T14:41:05.590Z,11.67
2018-10-12T14:43:34.036Z,18.00
2018-10-12T14:46:02.381Z,11.97
2018-10-12T14:48:30.714Z,12.00
2018-10-12T14:50:59.059Z,12.33
2018-10-12T14:53:27.431Z,12.37
2018-10-12T14:55:55.756Z,11.93
2018-10-12T14:58:24.104Z,17.90
2018-10-12T15:00:52.529Z,12.77
2018-10-12T15:03:20.862Z,21.00
2018-10-12T15:05:49.230Z,12.00
2018-10-12T15:08:17.626Z,11.47
2018-10-12T15:10:45.954Z,9.80
2018-10-12T15:13:14.332Z,9.43
2018-10-12T15:15:42.670Z,10.50
2018-10-12T15:18:11.065Z,12.20
2018-10-12T15:20:39.406Z,15.10
2018-10-12T15:23:07.745Z,15.37
2018-10-12T15:25:36.088Z,12.30
2018-10-12T15:28:04.455Z,13.90
2018-10-12T15:30:32.769Z,13.43
2018-10-12T15:33:01.154Z,14.03
2018-10-12T15:35:29.497Z,11.00
2018-10-12T15:37:57.853Z,14.50
2018-10-12T15:40:26.345Z,13.57
2018-10-12T15:42:54.774Z,24.37
2018-10-12T15:45:23.057Z,13.93
2018-10-12T15:47:51.440Z,39.60
2018-10-12T15:50:29.583Z,16.60
2018-10-12T15:52:57.975Z,15.63
2018-10-12T15:55:26.314Z,20.97
2018-10-12T15:57:54.659Z,13.87
2018-10-12T16:00:23.083Z,13.30
2018-10-12T16:02:52.131Z,27.13
2018-10-12T16:05:20.524Z,16.63
2018-10-12T16:07:48.911Z,20.07
2018-10-12T16:10:17.324Z,14.17
2018-10-12T16:12:45.695Z,12.90
2018-10-12T16:15:14.044Z,19.43
2018-10-12T16:17:42.403Z,22.10
2018-10-12T16:20:10.765Z,28.93
2018-10-12T16:22:39.133Z,15.90
2018-10-12T16:25:18.853Z,19.43
2018-10-12T16:27:47.405Z,19.70
2018-10-12T16:30:15.791Z,32.77
2018-10-12T16:32:44.128Z,20.47
2018-10-12T16:35:12.479Z,18.07
2018-10-12T16:37:40.831Z,18.30
2018-10-12T16:40:09.222Z,21.87
2018-10-12T16:42:38.161Z,19.17
2018-10-12T16:45:06.541Z,27.37
2018-10-12T16:47:34.944Z,15.43
2018-10-12T16:50:03.340Z,15.53
2018-10-12T16:52:31.711Z,20.33
2018-10-12T16:55:00.056Z,13.17
2018-10-12T16:57:35.253Z,13.80
2018-10-12T17:00:03.993Z,20.90
2018-10-12T17:02:32.372Z,17.77
2018-10-12T17:05:00.712Z,21.23
2018-10-12T17:07:29.088Z,15.23
2018-10-12T17:09:57.448Z,19.03
2018-10-12T17:12:25.801Z,19.03
2018-10-12T17:14:54.172Z,20.10
2018-10-12T17:17:22.541Z,28.13
2018-10-12T17:19:50.912Z,28.37
2018-10-12T17:22:19.287Z,17.83
2018-10-12T17:24:47.652Z,17.80
2018-10-12T17:27:16.015Z,20.80
2018-10-12T17:29:44.382Z,19.03
2018-10-12T17:32:12.729Z,15.17
2018-10-12T17:34:41.086Z,18.10
2018-10-12T17:37:09.493Z,21.73
2018-10-12T17:39:37.842Z,20.63
2018-10-12T17:42:13.324Z,20.23
2018-10-12T17:44:41.794Z,17.47
2018-10-12T17:47:10.222Z,22.60
2018-10-12T17:49:38.627Z,25.10
2018-10-12T17:52:07.246Z,19.53
2018-10-12T17:54:35.611Z,17.33
2018-10-12T17:57:05.543Z,20.50
2018-10-12T17:59:34.126Z,17.93
2018-10-12T18:02:03.020Z,24.93
2018-10-12T18:04:32.628Z,18.83
2018-10-12T18:07:01.006Z,21.73
2018-10-12T18:09:29.386Z,21.27
2018-10-12T18:11:57.760Z,23.77
2018-10-12T18:14:26.248Z,18.77
2018-10-12T18:16:54.513Z,18.57
2018-10-12T18:19:22.889Z,19.80
2018-10-12T18:21:51.289Z,20.03
2018-10-12T18:24:19.652Z,20.83
2018-10-12T18:26:48.004Z,20.90
2018-10-12T18:29:16.511Z,21.37
2018-10-12T18:31:44.936Z,21.83
2018-10-12T18:34:13.290Z,20.20
2018-10-12T18:36:41.653Z,19.47
2018-10-12T18:39:11.139Z,19.40
2018-10-12T18:41:39.513Z,19.13
2018-10-12T18:44:07.879Z,17.83
2018-10-12T18:46:36.603Z,21.47
2018-10-12T18:49:05.193Z,28.50
2018-10-12T18:51:33.568Z,24.93
2018-10-12T18:54:01.972Z,23.67
2018-10-12T18:56:30.396Z,22.67
2018-10-12T18:58:58.777Z,20.73
2018-10-12T19:01:27.195Z,26.43
2018-10-12T19:03:55.900Z,23.70
2018-10-12T19:06:24.280Z,20.70
2018-10-12T19:08:52.672Z,24.73
2018-10-12T19:11:21.038Z,21.43
2018-10-12T19:13:49.446Z,23.10
2018-10-12T19:16:17.768Z,22.67
2018-10-12T19:18:46.160Z,22.47
2018-10-12T19:21:14.595Z,24.47
2018-10-12T19:23:42.967Z,25.23
2018-10-12T19:26:11.357Z,28.73
2018-10-12T19:28:39.745Z,25.97
2018-10-12T19:31:08.890Z,20.90
2018-10-12T19:33:38.121Z,24.27
2018-10-12T19:36:06.586Z,24.97
2018-10-12T19:38:34.980Z,20.97
2018-10-12T19:41:03.375Z,22.27
2018-10-12T19:43:31.723Z,28.80
2018-10-12T19:46:00.077Z,23.90
2018-10-12T19:48:28.436Z,25.03
2018-10-12T19:50:56.791Z,29.90
2018-10-12T19:53:25.136Z,22.00
2018-10-12T19:55:53.492Z,22.50
2018-10-12T19:58:21.857Z,24.10
2018-10-12T20:03:49.012Z,22.63
2018-10-12T20:06:17.353Z,32.60
2018-10-12T20:08:45.686Z,22.87
2018-10-12T20:11:14.008Z,30.97
2018-10-12T20:13:42.325Z,23.03
2018-10-12T20:16:10.665Z,22.30
2018-10-12T20:18:38.972Z,27.20
2018-10-12T20:21:07.373Z,27.07
2018-10-12T20:23:35.798Z,23.00
2018-10-12T20:26:04.121Z,27.70
2018-10-12T20:28:32.457Z,25.67
2018-10-12T20:31:00.815Z,21.63
2018-10-12T20:33:29.173Z,24.47
2018-10-12T20:35:57.505Z,23.37
2018-10-12T20:38:25.824Z,29.23
2018-10-12T20:40:54.172Z,26.47
2018-10-12T20:43:22.492Z,29.00
2018-10-12T20:45:50.822Z,22.47
2018-10-12T20:48:19.171Z,21.27
2018-10-12T20:50:47.546Z,32.13
2018-10-12T20:53:15.871Z,24.10
2018-10-12T20:55:44.229Z,26.50
2018-10-12T20:58:16.711Z,22.40
2018-10-12T21:00:45.805Z,25.00
2018-10-12T21:03:14.187Z,30.07
2018-10-12T21:05:42.766Z,23.67
2018-10-12T21:08:11.169Z,26.63
2018-10-12T21:10:39.632Z,25.47
2018-10-12T21:13:07.963Z,25.67
2018-10-12T21:15:36.296Z,23.50
2018-10-12T21:18:04.822Z,24.70
2018-10-12T21:20:33.134Z,21.40
2018-10-12T21:23:01.485Z,26.50
2018-10-12T21:25:29.856Z,27.53
2018-10-12T21:27:58.206Z,23.67
2018-10-12T21:30:26.552Z,26.57
2018-10-12T21:32:54.899Z,28.13
2018-10-12T21:35:23.237Z,20.80
2018-10-12T21:37:51.577Z,21.47
2018-10-12T21:40:19.978Z,27.63
2018-10-12T21:42:48.342Z,21.27
2018-10-12T21:45:16.663Z,22.43
2018-10-12T21:47:45.098Z,27.23
2018-10-12T21:50:13.445Z,26.80
2018-10-12T21:52:41.792Z,22.90
2018-10-12T21:55:10.128Z,24.97
2018-10-12T21:57:38.451Z,25.87
2018-10-12T22:00:06.966Z,22.70
2018-10-12T22:02:35.193Z,33.03
2018-10-12T22:05:03.555Z,25.17
2018-10-12T22:07:31.896Z,33.90
2018-10-12T22:10:00.251Z,28.53
2018-10-12T22:12:28.617Z,27.33
2018-10-12T22:14:56.977Z,24.43
2018-10-12T22:17:25.307Z,29.50
2018-10-12T22:19:53.661Z,26.30
2018-10-12T22:22:22.013Z,26.27
2018-10-12T22:24:50.716Z,27.53
2018-10-12T22:27:19.063Z,27.50
2018-10-12T22:29:47.368Z,32.57
2018-10-12T22:32:15.720Z,26.77
2018-10-12T22:34:44.055Z,26.40
2018-10-12T22:37:12.377Z,25.20
2018-10-12T22:39:43.549Z,25.67
2018-10-12T22:42:13.250Z,31.30
2018-10-12T22:44:41.576Z,27.70
2018-10-12T22:47:10.537Z,26.73
2018-10-12T22:49:39.213Z,28.83
2018-10-12T22:52:07.774Z,29.00
2018-10-12T22:54:36.116Z,29.13
2018-10-12T22:57:04.482Z,28.70
2018-10-12T22:59:32.808Z,22.70
2018-10-12T23:02:01.209Z,22.67
2018-10-12T23:04:29.564Z,29.43
2018-10-12T23:06:57.891Z,24.60
2018-10-12T23:09:26.224Z,30.30
2018-10-12T23:11:54.535Z,33.40
2018-10-12T23:14:22.876Z,27.33
2018-10-12T23:16:51.189Z,26.63
2018-10-12T23:19:19.538Z,30.63
2018-10-12T23:21:47.870Z,24.43
2018-10-12T23:24:16.203Z,25.20
2018-10-12T23:26:44.532Z,25.43
2018-10-12T23:29:12.866Z,22.97
2018-10-12T23:31:41.189Z,23.97
2018-10-12T23:34:10.037Z,27.47
2018-10-12T23:36:38.389Z,25.27
2018-10-12T23:39:08.510Z,25.30
2018-10-12T23:41:36.857Z,27.93
2018-10-12T23:44:05.459Z,28.73
2018-10-12T23:46:33.778Z,26.73
2018-10-12T23:49:02.130Z,26.27
2018-10-12T23:51:30.438Z,26.90
2018-10-12T23:53:58.773Z,27.17
2018-10-12T23:56:27.281Z,25.80
2018-10-12T23:58:55.614Z,24.20
